createdAt,value
2022-08-11T00:02:05.617Z,15.36
2022-08-11T00:07:19.650Z,15.29
2022-08-11T00:12:23.406Z,15.22
2022-08-11T00:17:32.063Z,15.15
2022-08-11T00:22:38.189Z,15.07
2022-08-11T00:27:42.473Z,15.00
2022-08-11T00:32:54.922Z,14.93
2022-08-11T00:38:00.037Z,14.88
2022-08-11T00:43:35.121Z,14.84
2022-08-11T00:49:12.534Z,14.80
2022-08-11T00:54:39.043Z,14.74
2022-08-11T01:00:06.493Z,14.69
2022-08-11T01:05:46.670Z,14.63
2022-08-11T01:11:08.222Z,14.56
2022-08-11T01:16:30.289Z,14.48
2022-08-11T01:21:51.523Z,14.39
2022-08-11T01:27:03.035Z,14.27
2022-08-11T01:32:23.968Z,14.15
2022-08-11T01:37:45.543Z,14.04
2022-08-11T01:43:15.977Z,13.94
2022-08-11T01:48:42.456Z,13.85
2022-08-11T01:53:47.789Z,13.77
2022-08-11T01:59:21.233Z,13.68
2022-08-11T02:04:46.955Z,13.61
2022-08-11T02:10:40.316Z,13.54
2022-08-11T02:15:50.308Z,13.45
2022-08-11T02:21:15.924Z,13.33
2022-08-11T02:26:24.482Z,13.24
2022-08-11T02:32:24.669Z,13.13
2022-08-11T02:37:33.369Z,13.02
2022-08-11T02:42:45.419Z,12.97
2022-08-11T02:48:17.907Z,12.99
2022-08-11T02:53:37.786Z,13.03
2022-08-11T02:59:42.108Z,13.06
2022-08-11T03:05:14.002Z,13.09
2022-08-11T03:10:32.644Z,13.12
2022-08-11T03:16:38.105Z,13.13
2022-08-11T03:22:01.522Z,13.12
2022-08-11T03:27:27.890Z,13.12
2022-08-11T03:33:17.403Z,13.15
2022-08-11T03:38:30.663Z,13.23
2022-08-11T03:43:50.136Z,13.36
2022-08-11T03:49:21.754Z,13.50
2022-08-11T03:55:13.963Z,13.66
2022-08-11T04:00:42.095Z,13.80
2022-08-11T04:06:03.330Z,13.95
2022-08-11T04:11:24.306Z,14.09
2022-08-11T04:16:36.140Z,14.22
2022-08-11T04:22:07.364Z,14.39
2022-08-11T04:27:37.399Z,14.58
2022-08-11T04:33:18.385Z,14.81
2022-08-11T04:38:33.499Z,15.05
2022-08-11T04:44:11.879Z,15.27
2022-08-11T04:49:36.336Z,15.48
2022-08-11T04:55:03.967Z,15.65
2022-08-11T05:00:29.088Z,15.86
2022-08-11T05:05:57.251Z,16.16
2022-08-11T05:11:09.302Z,16.43
2022-08-11T05:16:34.730Z,16.67
2022-08-11T05:22:00.086Z,16.85
2022-08-11T05:27:26.505Z,17.04
2022-08-11T05:33:02.603Z,17.36
2022-08-11T05:38:31.941Z,18.47
2022-08-11T05:44:20.034Z,19.65
2022-08-11T05:49:42.259Z,20.77
2022-08-11T05:55:06.949Z,21.66
2022-08-11T06:00:11.894Z,22.72
2022-08-11T06:05:16.328Z,23.59
2022-08-11T06:10:51.792Z,24.45
2022-08-11T06:15:56.132Z,25.50
2022-08-11T06:21:00.674Z,26.46
2022-08-11T06:26:09.933Z,27.35
2022-08-11T06:31:15.453Z,28.24
2022-08-11T06:36:43.303Z,28.97
2022-08-11T06:42:06.683Z,29.82
2022-08-11T06:47:12.615Z,30.80
2022-08-11T06:52:34.943Z,31.36
2022-08-11T06:58:00.178Z,32.02
2022-08-11T07:03:13.025Z,32.72
2022-08-11T07:09:23.384Z,33.61
2022-08-11T07:14:48.657Z,34.29
2022-08-11T07:20:17.104Z,34.98
2022-08-11T07:25:41.335Z,35.36
2022-08-11T07:30:45.010Z,36.10
2022-08-11T07:35:51.116Z,36.59
2022-08-11T07:40:54.041Z,37.04
2022-08-11T07:46:15.890Z,38.05
2022-08-11T07:51:39.919Z,38.79
2022-08-11T07:56:55.037Z,39.40
2022-08-11T08:02:19.309Z,39.90
2022-08-11T08:07:42.243Z,40.44
2022-08-11T08:13:04.177Z,41.25
2022-08-11T08:18:25.569Z,42.24
2022-08-11T08:23:33.769Z,43.23
2022-08-11T08:28:37.174Z,43.88
2022-08-11T08:33:42.332Z,44.47
2022-08-11T08:38:51.235Z,45.11
2022-08-11T08:44:20.982Z,45.44
2022-08-11T08:49:29.532Z,45.55
2022-08-11T08:54:43.281Z,45.95
2022-08-11T08:59:51.359Z,46.39
2022-08-11T09:04:54.931Z,46.53
2022-08-11T09:09:59.834Z,46.46
2022-08-11T09:15:05.936Z,47.50
2022-08-11T09:20:24.946Z,47.99
2022-08-11T09:25:49.321Z,46.90
2022-08-11T09:30:53.800Z,47.95
2022-08-11T09:35:57.955Z,47.75
2022-08-11T09:41:05.641Z,48.33
2022-08-11T09:46:10.036Z,48.22
2022-08-11T09:51:14.643Z,48.81
2022-08-11T09:56:39.080Z,48.65
2022-08-11T10:01:49.282Z,47.38
2022-08-11T10:07:01.883Z,43.02
2022-08-11T10:12:13.023Z,41.07
2022-08-11T10:17:18.862Z,41.60
2022-08-11T10:22:40.584Z,43.68
2022-08-11T10:28:17.767Z,45.27
2022-08-11T10:33:36.855Z,47.31
2022-08-11T10:38:40.353Z,46.42
2022-08-11T10:44:01.668Z,43.10
2022-08-11T10:49:06.650Z,39.80
2022-08-11T10:54:28.869Z,42.11
2022-08-11T10:59:34.525Z,44.91
2022-08-11T11:04:54.234Z,46.44
2022-08-11T11:10:02.008Z,47.90
2022-08-11T11:15:25.550Z,48.69
2022-08-11T11:20:41.617Z,46.23
2022-08-11T11:26:27.126Z,41.97
2022-08-11T11:31:36.591Z,38.67
2022-08-11T11:36:47.840Z,37.54
2022-08-11T11:41:53.482Z,40.46
2022-08-11T11:46:57.631Z,43.31
2022-08-11T11:52:01.085Z,44.72
2022-08-11T11:57:24.847Z,46.00
2022-08-11T12:02:28.366Z,47.28
2022-08-11T12:07:56.973Z,47.33
2022-08-11T12:13:36.087Z,47.59
2022-08-11T12:18:41.225Z,47.78
2022-08-11T12:24:06.527Z,47.97
2022-08-11T12:29:11.611Z,47.80
2022-08-11T12:34:16.172Z,47.41
2022-08-11T12:40:16.047Z,46.90
2022-08-11T12:45:28.234Z,46.55
2022-08-11T12:50:50.485Z,46.21
2022-08-11T12:56:19.782Z,45.21
2022-08-11T13:01:41.419Z,45.01
2022-08-11T13:06:44.840Z,44.92
2022-08-11T13:12:07.038Z,44.77
2022-08-11T13:17:43.572Z,44.38
2022-08-11T13:22:50.383Z,44.01
2022-08-11T13:27:57.187Z,43.54
2022-08-11T13:33:07.804Z,42.43
2022-08-11T13:38:18.927Z,41.73
2022-08-11T13:43:25.915Z,41.44
2022-08-11T13:48:28.877Z,41.40
2022-08-11T13:53:32.802Z,41.54
2022-08-11T13:58:40.087Z,41.46
2022-08-11T14:04:31.054Z,41.14
2022-08-11T14:09:10.836Z,40.87
2022-08-11T14:14:21.297Z,40.69
2022-08-11T14:19:26.167Z,40.27
2022-08-11T14:24:29.864Z,39.95
2022-08-11T14:29:44.812Z,39.45
2022-08-11T14:34:52.886Z,39.04
2022-08-11T14:40:03.822Z,38.73
2022-08-11T14:45:57.503Z,38.45
2022-08-11T14:51:02.118Z,37.94
2022-08-11T14:56:24.853Z,37.38
2022-08-11T15:01:46.425Z,36.88
2022-08-11T15:06:50.435Z,36.40
2022-08-11T15:12:31.511Z,36.09
2022-08-11T15:17:43.008Z,35.59
2022-08-11T15:23:04.659Z,35.14
2022-08-11T15:28:29.040Z,34.77
2022-08-11T15:33:51.647Z,33.93
2022-08-11T15:39:20.552Z,33.15
2022-08-11T15:45:03.568Z,32.44
2022-08-11T15:50:13.944Z,31.85
2022-08-11T15:55:19.145Z,31.27
2022-08-11T16:00:41.789Z,30.80
2022-08-11T16:05:53.267Z,30.38
2022-08-11T16:10:57.455Z,30.03
2022-08-11T16:16:14.964Z,29.73
2022-08-11T16:21:35.107Z,29.39
2022-08-11T16:27:11.606Z,29.14
2022-08-11T16:32:19.125Z,28.94
2022-08-11T16:37:42.255Z,28.68
2022-08-11T16:43:10.853Z,28.37
2022-08-11T16:48:35.422Z,28.08
2022-08-11T16:54:00.131Z,27.88
2022-08-11T16:59:18.237Z,27.68
2022-08-11T17:04:46.259Z,27.48
2022-08-11T17:10:39.281Z,27.29
2022-08-11T17:15:51.002Z,27.12
2022-08-11T17:20:55.621Z,26.99
2022-08-11T17:26:03.250Z,26.81
2022-08-11T17:31:26.332Z,26.61
2022-08-11T17:36:29.433Z,26.37
2022-08-11T17:41:50.919Z,26.14
2022-08-11T17:47:13.142Z,25.85
2022-08-11T17:52:35.662Z,25.51
2022-08-11T17:57:58.874Z,25.09
2022-08-11T18:03:21.592Z,24.77
2022-08-11T18:08:44.488Z,24.42
2022-08-11T18:14:08.339Z,24.12
2022-08-11T18:19:30.749Z,23.83
2022-08-11T18:24:58.566Z,23.55
2022-08-11T18:30:22.919Z,23.26
2022-08-11T18:35:47.332Z,22.98
2022-08-11T18:41:10.816Z,22.69
2022-08-11T18:46:36.977Z,22.45
2022-08-11T18:52:00.379Z,22.21
2022-08-11T18:57:24.967Z,22.00
2022-08-11T19:02:49.561Z,21.79
2022-08-11T19:08:14.343Z,21.61
2022-08-11T19:13:40.387Z,21.44
2022-08-11T19:19:07.750Z,21.27
2022-08-11T19:24:30.397Z,21.11
2022-08-11T19:30:11.973Z,20.98
2022-08-11T19:35:36.496Z,20.85
2022-08-11T19:40:59.802Z,20.74
2022-08-11T19:46:24.613Z,20.63
2022-08-11T19:51:53.458Z,20.51
2022-08-11T19:57:15.905Z,20.38
2022-08-11T20:02:38.523Z,20.27
2022-08-11T20:08:01.634Z,20.13
2022-08-11T20:13:26.575Z,20.00
2022-08-11T20:18:48.829Z,19.88
2022-08-11T20:24:10.104Z,19.77
2022-08-11T20:29:31.763Z,19.65
2022-08-11T20:34:55.219Z,19.52
2022-08-11T20:40:23.813Z,19.39
2022-08-11T20:45:55.171Z,19.29
2022-08-11T20:51:19.875Z,19.19
2022-08-11T20:56:47.580Z,19.09
2022-08-11T21:02:11.083Z,18.99
2022-08-11T21:07:35.894Z,18.90
2022-08-11T21:13:24.119Z,18.78
2022-08-11T21:18:48.048Z,18.66
2022-08-11T21:24:11.556Z,18.53
2022-08-11T21:29:34.187Z,18.40
2022-08-11T21:34:56.704Z,18.28
2022-08-11T21:40:20.897Z,18.17
2022-08-11T21:45:44.387Z,18.07
2022-08-11T21:51:06.236Z,17.98
2022-08-11T21:56:29.909Z,17.88
2022-08-11T22:01:52.160Z,17.79
2022-08-11T22:07:15.174Z,17.71
2022-08-11T22:12:41.009Z,17.64
2022-08-11T22:18:05.723Z,17.57
2022-08-11T22:23:35.814Z,17.53
2022-08-11T22:28:58.174Z,17.49
2022-08-11T22:34:20.806Z,17.48
2022-08-11T22:39:44.509Z,17.45
2022-08-11T22:45:06.183Z,17.39
2022-08-11T22:50:29.059Z,17.31
2022-08-11T22:55:51.211Z,17.20
2022-08-11T23:01:14.347Z,17.10
2022-08-11T23:06:37.982Z,17.00
2022-08-11T23:12:07.750Z,16.92
2022-08-11T23:17:32.739Z,16.90
2022-08-11T23:22:57.200Z,16.88
2022-08-11T23:28:21.491Z,16.84
2022-08-11T23:33:43.571Z,16.75
2022-08-11T23:39:05.280Z,16.68
2022-08-11T23:44:27.687Z,16.61
2022-08-11T23:49:49.540Z,16.55
2022-08-11T23:55:11.542Z,16.50
